createdAt,value
2022-10-17T00:04:16.388Z,87.33
2022-10-17T00:09:18.553Z,87.84
2022-10-17T00:14:20.225Z,88.28
2022-10-17T00:19:21.911Z,88.12
2022-10-17T00:24:24.151Z,87.15
2022-10-17T00:29:25.899Z,87.72
2022-10-17T00:34:29.653Z,87.62
2022-10-17T00:39:31.833Z,87.71
2022-10-17T00:44:33.474Z,88.50
2022-10-17T00:49:36.879Z,88.92
2022-10-17T00:54:44.031Z,89.04
2022-10-17T00:59:51.724Z,89.25
2022-10-17T01:04:56.435Z,89.56
2022-10-17T01:09:58.215Z,89.86
2022-10-17T01:15:11.099Z,89.63
2022-10-17T01:20:31.590Z,89.36
2022-10-17T01:25:52.563Z,89.57
2022-10-17T01:31:11.826Z,87.96
2022-10-17T01:36:26.241Z,87.98
2022-10-17T01:41:40.679Z,88.60
2022-10-17T01:46:50.821Z,89.09
2022-10-17T01:52:27.545Z,89.24
2022-10-17T01:57:35.070Z,89.28
2022-10-17T02:02:37.547Z,89.18
2022-10-17T02:07:41.136Z,86.85
2022-10-17T02:12:51.467Z,86.81
2022-10-17T02:17:59.268Z,87.61
2022-10-17T02:23:16.404Z,86.83
2022-10-17T02:28:30.552Z,87.12
2022-10-17T02:33:41.715Z,87.75
2022-10-17T02:38:45.182Z,88.52
2022-10-17T02:43:50.088Z,88.10
2022-10-17T02:48:55.391Z,87.06
2022-10-17T02:54:06.157Z,87.23
2022-10-17T02:59:16.116Z,86.20
2022-10-17T03:04:18.847Z,85.89
2022-10-17T03:09:20.586Z,86.24
2022-10-17T03:14:22.618Z,85.86
2022-10-17T03:19:24.468Z,85.29
2022-10-17T03:24:27.819Z,86.22
2022-10-17T03:29:29.834Z,85.94
2022-10-17T03:34:31.963Z,85.49
2022-10-17T03:39:33.860Z,86.09
2022-10-17T03:44:35.790Z,85.32
2022-10-17T03:49:37.564Z,84.81
2022-10-17T03:54:41.247Z,85.35
2022-10-17T03:59:43.062Z,85.37
2022-10-17T04:04:49.921Z,86.80
2022-10-17T04:09:51.837Z,87.40
2022-10-17T04:14:55.639Z,88.06
2022-10-17T04:19:57.859Z,87.61
2022-10-17T04:24:59.692Z,85.93
2022-10-17T04:30:17.672Z,86.44
2022-10-17T04:35:20.652Z,86.93
2022-10-17T04:40:27.773Z,86.14
2022-10-17T04:45:30.362Z,87.01
2022-10-17T04:50:37.002Z,87.79
2022-10-17T04:55:58.833Z,87.88
2022-10-17T05:01:05.523Z,87.67
2022-10-17T05:06:10.261Z,87.33
2022-10-17T05:11:22.153Z,89.88
2022-10-17T05:16:24.980Z,90.22
2022-10-17T05:21:29.144Z,88.41
2022-10-17T05:26:31.308Z,87.03
2022-10-17T05:31:33.237Z,86.23
2022-10-17T05:36:34.980Z,85.83
2022-10-17T05:41:39.289Z,84.52
2022-10-17T05:46:41.236Z,83.84
2022-10-17T05:51:44.493Z,84.50
2022-10-17T05:56:52.143Z,85.52
2022-10-17T06:01:55.915Z,85.29
2022-10-17T06:06:57.760Z,85.96
2022-10-17T06:11:59.770Z,87.33
2022-10-17T06:17:01.680Z,87.59
2022-10-17T06:22:03.623Z,88.07
2022-10-17T06:27:10.927Z,88.61
2022-10-17T06:32:15.287Z,89.09
2022-10-17T06:37:20.388Z,91.01
2022-10-17T06:42:22.911Z,92.03
2022-10-17T06:47:42.049Z,92.65
2022-10-17T06:52:59.341Z,93.33
2022-10-17T06:58:22.381Z,94.91
2022-10-17T07:03:43.724Z,95.95
2022-10-17T07:08:47.068Z,97.47
2022-10-17T07:13:52.369Z,97.39
2022-10-17T07:18:55.756Z,96.70
2022-10-17T07:23:57.889Z,96.71
2022-10-17T07:29:01.708Z,96.85
2022-10-17T07:34:11.553Z,97.20
2022-10-17T07:39:13.522Z,97.40
2022-10-17T07:44:16.353Z,98.40
2022-10-17T07:49:22.148Z,99.31
2022-10-17T07:54:23.935Z,99.97
2022-10-17T07:59:25.625Z,100.00
2022-10-17T08:04:27.437Z,99.90
2022-10-17T08:09:29.781Z,99.72
2022-10-17T08:14:31.635Z,99.17
2022-10-17T08:19:33.341Z,98.30
2022-10-17T08:24:35.466Z,97.64
2022-10-17T08:29:38.161Z,96.99
2022-10-17T08:34:39.923Z,95.88
2022-10-17T08:39:42.633Z,95.36
2022-10-17T08:45:03.853Z,94.55
2022-10-17T08:50:10.498Z,94.41
2022-10-17T08:55:34.118Z,93.82
2022-10-17T09:00:51.210Z,93.75
2022-10-17T09:06:19.481Z,93.90
2022-10-17T09:11:52.290Z,92.76
2022-10-17T09:17:14.466Z,92.55
2022-10-17T09:22:21.311Z,93.44
2022-10-17T09:27:34.742Z,93.98
2022-10-17T09:32:37.633Z,93.18
2022-10-17T09:37:39.449Z,92.84
2022-10-17T09:42:41.262Z,92.80
2022-10-17T09:52:53.873Z,90.99
2022-10-17T09:58:01.714Z,90.87
2022-10-17T10:03:18.425Z,92.34
2022-10-17T10:08:21.298Z,92.20
2022-10-17T10:13:27.273Z,92.15
2022-10-17T10:18:32.535Z,93.50
2022-10-17T10:23:40.020Z,92.22
2022-10-17T10:29:05.313Z,92.05
2022-10-17T10:34:18.599Z,92.24
2022-10-17T10:39:30.840Z,91.50
2022-10-17T10:44:34.177Z,91.16
2022-10-17T10:49:38.155Z,90.96
2022-10-17T10:54:50.715Z,90.14
2022-10-17T11:00:02.001Z,90.04
2022-10-17T11:05:12.210Z,89.28
2022-10-17T11:10:32.038Z,88.39
2022-10-17T11:15:53.694Z,87.31
2022-10-17T11:21:02.764Z,86.56
2022-10-17T11:26:11.075Z,85.32
2022-10-17T11:31:15.760Z,84.11
2022-10-17T11:36:21.813Z,83.45
2022-10-17T11:41:41.554Z,81.29
2022-10-17T11:46:47.021Z,80.83
2022-10-17T11:52:02.329Z,80.59
2022-10-17T11:57:29.547Z,79.96
2022-10-17T12:03:03.045Z,78.82
2022-10-17T12:08:16.471Z,77.65
2022-10-17T12:13:41.152Z,77.44
2022-10-17T12:18:42.837Z,76.14
2022-10-17T12:23:53.170Z,75.80
2022-10-17T12:28:56.398Z,75.72
2022-10-17T12:34:00.923Z,74.99
2022-10-17T12:39:02.566Z,75.44
2022-10-17T12:44:13.014Z,74.17
2022-10-17T12:49:41.638Z,74.13
2022-10-17T12:55:14.229Z,74.29
2022-10-17T13:00:29.481Z,75.71
2022-10-17T13:05:35.988Z,76.24
2022-10-17T13:10:41.956Z,76.11
2022-10-17T13:15:50.285Z,75.68
2022-10-17T13:21:00.259Z,75.84
2022-10-17T13:26:26.219Z,74.75
2022-10-17T13:31:30.955Z,75.65
2022-10-17T13:36:35.200Z,74.90
2022-10-17T13:41:38.253Z,73.80
2022-10-17T13:46:41.853Z,73.67
2022-10-17T13:51:50.138Z,73.68
2022-10-17T13:56:57.443Z,74.24
2022-10-17T14:02:01.598Z,74.26
2022-10-17T14:07:03.697Z,73.77
2022-10-17T14:12:12.779Z,73.67
2022-10-17T14:17:21.834Z,74.14
2022-10-17T14:22:23.502Z,74.56
2022-10-17T14:27:55.264Z,75.32
2022-10-17T14:32:59.962Z,75.50
2022-10-17T14:38:05.737Z,76.24
2022-10-17T14:43:07.430Z,76.73
2022-10-17T14:48:14.442Z,76.97
2022-10-17T14:53:16.218Z,77.51
2022-10-17T14:58:26.087Z,78.13
2022-10-17T15:03:28.278Z,77.28
2022-10-17T15:08:30.212Z,78.47
2022-10-17T15:13:36.776Z,78.74
2022-10-17T15:18:41.832Z,77.96
2022-10-17T15:23:43.885Z,78.86
2022-10-17T15:28:47.460Z,79.20
2022-10-17T15:33:49.808Z,79.60
2022-10-17T15:38:53.677Z,80.73
2022-10-17T15:43:55.701Z,81.42
2022-10-17T15:49:01.585Z,81.78
2022-10-17T15:54:04.895Z,83.35
2022-10-17T15:59:13.150Z,84.18
2022-10-17T16:04:15.851Z,84.74
2022-10-17T16:09:17.632Z,85.46
2022-10-17T16:14:19.347Z,86.92
2022-10-17T16:19:21.706Z,87.88
2022-10-17T16:24:24.898Z,88.51
2022-10-17T16:29:26.581Z,88.79
2022-10-17T16:34:30.614Z,89.26
2022-10-17T16:39:32.311Z,89.72
2022-10-17T16:44:34.050Z,89.91
2022-10-17T16:49:36.887Z,90.47
2022-10-17T16:54:40.087Z,90.47
2022-10-17T16:59:41.879Z,90.91
2022-10-17T17:04:43.546Z,91.31
2022-10-17T17:09:45.199Z,91.36
2022-10-17T17:14:47.013Z,91.61
2022-10-17T17:19:48.740Z,91.17
2022-10-17T17:24:50.629Z,90.36
2022-10-17T17:29:52.571Z,90.16
2022-10-17T17:34:54.433Z,90.45
2022-10-17T17:39:56.219Z,90.90
2022-10-17T17:44:57.846Z,90.15
2022-10-17T17:49:59.688Z,90.78
2022-10-17T17:55:01.375Z,91.26
2022-10-17T18:00:04.829Z,91.40
2022-10-17T18:05:07.391Z,91.46
2022-10-17T18:10:09.741Z,91.07
2022-10-17T18:15:11.846Z,90.63
2022-10-17T18:20:13.675Z,90.36
2022-10-17T18:25:15.426Z,90.63
2022-10-17T18:30:19.240Z,91.01
2022-10-17T18:35:23.162Z,91.26
2022-10-17T18:40:24.859Z,91.66
2022-10-17T18:45:26.810Z,92.31
2022-10-17T18:50:28.546Z,92.44
2022-10-17T18:55:31.519Z,92.86
2022-10-17T19:00:33.399Z,92.46
2022-10-17T19:05:38.285Z,92.55
2022-10-17T19:10:41.573Z,93.07
2022-10-17T19:15:43.238Z,93.26
2022-10-17T19:20:46.035Z,93.72
2022-10-17T19:25:47.642Z,94.50
2022-10-17T19:30:49.410Z,92.93
2022-10-17T19:36:02.152Z,92.28
2022-10-17T19:41:09.140Z,91.11
2022-10-17T19:46:14.399Z,92.37
2022-10-17T19:51:17.939Z,94.57
2022-10-17T19:56:21.624Z,96.22
2022-10-17T20:01:25.825Z,94.18
2022-10-17T20:06:27.887Z,94.20
2022-10-17T20:11:30.267Z,94.29
2022-10-17T20:16:34.600Z,93.18
2022-10-17T20:21:37.316Z,92.71
2022-10-17T20:26:39.987Z,93.69
2022-10-17T20:31:44.441Z,93.49
2022-10-17T20:36:46.781Z,93.24
2022-10-17T20:41:48.796Z,91.98
2022-10-17T20:47:01.033Z,91.14
2022-10-17T20:52:04.002Z,91.06
2022-10-17T20:57:05.937Z,91.32
2022-10-17T21:02:11.674Z,90.58
2022-10-17T21:07:13.676Z,90.17
2022-10-17T21:12:25.791Z,90.95
2022-10-17T21:17:33.241Z,90.74
2022-10-17T21:22:35.158Z,91.79
2022-10-17T21:27:36.892Z,92.12
2022-10-17T21:32:51.151Z,91.93
2022-10-17T21:37:53.626Z,90.07
2022-10-17T21:42:55.318Z,90.39
2022-10-17T21:48:13.279Z,89.53
2022-10-17T21:53:15.120Z,89.76
2022-10-17T21:58:16.910Z,89.39
2022-10-17T22:03:18.724Z,89.33
2022-10-17T22:08:20.397Z,89.12
2022-10-17T22:13:22.183Z,89.50
2022-10-17T22:18:23.925Z,88.96
2022-10-17T22:23:25.955Z,89.37
2022-10-17T22:28:28.535Z,89.06
2022-10-17T22:33:35.183Z,88.70
2022-10-17T22:38:37.165Z,89.05
2022-10-17T22:43:38.987Z,89.45
2022-10-17T22:48:40.961Z,88.82
2022-10-17T22:53:42.707Z,89.00
2022-10-17T22:58:44.710Z,89.25
2022-10-17T23:03:46.470Z,88.50
2022-10-17T23:08:48.990Z,88.01
2022-10-17T23:13:50.663Z,88.28
2022-10-17T23:18:52.323Z,88.70
2022-10-17T23:23:53.999Z,88.95
2022-10-17T23:28:55.780Z,89.25
2022-10-17T23:33:58.392Z,89.49
2022-10-17T23:39:00.896Z,89.79
2022-10-17T23:44:03.172Z,89.90
2022-10-17T23:49:06.120Z,89.84
2022-10-17T23:54:07.834Z,88.49
2022-10-17T23:59:09.631Z,88.95
